Terminal Aerodrome Forecast
Issued by NWS

Current Version | Previous Version | Text Only | Print | Product List | Glossary On
Versions: 1 2 3 4 5 6 7 8 9 10 11 12 13 14
000
FTUS45 KABQ 280058 AAA
TAFROW
TAF AMD
KROW 280058Z 2801/2824 21010KT P6SM BKN200
     FM281500 19015G25KT P6SM BKN120
     FM281900 24035G48KT 6SM BLDU BKN100=

USA.gov is the U.S. government's official web portal to all federal, state and local government web resources and services.